MSC Armonia — H8EW — position and weather

sailwx.info

Track history (hours):
 
Tides and Currents Weather Stations Pressure Air Temp Water Temp Dewpoint Dewpoint Depression Visibility Wind Speed Wind Dir Waves Ship Positions

MSC Armonia

Operator: Mediterranean Shipping Company

Last reported at 2018-May-18 23:28 UTC. Time now 2018-May-21 01:32 UTC.
Position N 20°31' W 086°57'.

Length 275 m; draft 6.8 m.

Type: Ship. MMSI: 357281000.

Date/timePositionNaut miles runAvg speedWind from/ knotsBaromVisibWave heightAir tempDewpointWater temp
2018-May-18 23:28N 20°31' W 086°57'1 1.1
2018-May-18 22:58N 20°31' W 086°57'0 0.0
2018-May-18 22:28N 20°31' W 086°57'0 0.0
2018-May-18 21:55N 20°31' W 086°57'0 0.0
2018-May-18 21:28N 20°31' W 086°57'0 0.0
2018-May-18 20:58N 20°31' W 086°57'0 0.0
2018-May-18 20:28N 20°31' W 086°57'0 0.0
2018-May-18 19:58N 20°31' W 086°57'0 0.0
2018-May-18 19:28N 20°31' W 086°57'0 0.0
2018-May-18 18:58N 20°31' W 086°57'0 0.0
2018-May-18 18:28N 20°31' W 086°57'0 0.0
2018-May-18 17:58N 20°31' W 086°57'0 0.0
2018-May-18 17:28N 20°31' W 086°57'0 0.0
2018-May-18 16:58N 20°31' W 086°57'0 0.0
2018-May-18 16:28N 20°31' W 086°57'0 0.0
2018-May-18 15:55N 20°31' W 086°57'0 0.0
2018-May-18 15:25N 20°31' W 086°57'0 0.0
2018-May-18 14:58N 20°31' W 086°57'0 0.0
2018-May-18 14:28N 20°31' W 086°57'0 0.0
2018-May-18 13:58N 20°31' W 086°57'1 1.1
2018-May-18 13:30N 20°31' W 086°57'  
2018-May-11 21:28N 20°35' W 086°57'4 8.8
2018-May-11 20:59N 20°31' W 086°57'0 0.0
2018-May-11 20:29N 20°31' W 086°57'0 0.0
2018-May-11 19:59N 20°31' W 086°57'0 0.0
2018-May-11 19:29N 20°31' W 086°57'0 0.0
2018-May-11 18:56N 20°31' W 086°57'0 0.0
2018-May-11 18:29N 20°31' W 086°57'0 0.0
2018-May-11 17:59N 20°31' W 086°57'0 0.0
2018-May-11 17:29N 20°31' W 086°57'0 0.0
2018-May-11 16:59N 20°31' W 086°57'0 0.0
2018-May-11 16:29N 20°31' W 086°57'0 0.0
2018-May-11 15:59N 20°31' W 086°57'0 0.0
2018-May-11 15:28N 20°31' W 086°57'0 0.0
2018-May-11 14:59N 20°31' W 086°57'0 0.0
2018-May-11 14:29N 20°31' W 086°57'0 0.0
2018-May-11 13:58N 20°31' W 086°57'0 0.0
2018-May-11 13:28N 20°31' W 086°57'0 0.0
2018-May-11 12:58N 20°31' W 086°57'0 0.0
2018-May-11 12:28N 20°31' W 086°57'0 0.0
2018-May-11 11:58N 20°31' W 086°57'0 0.0
2018-May-11 11:30N 20°31' W 086°57'1 1.9
2018-May-11 11:00N 20°30' W 086°58'4 8.0
2018-May-11 10:30N 20°27' W 087°01'  
Track history (hours):
 
Tides and Currents Weather Stations Pressure Air Temp Water Temp Dewpoint Dewpoint Depression Visibility Wind Speed Wind Dir Waves Ship Positions

MSC Armonia

Operator: Mediterranean Shipping Company

Last reported at 2018-May-18 23:28 UTC. Time now 2018-May-21 01:32 UTC.
Position N 20°31' W 086°57'.

Length 275 m; draft 6.8 m.

Type: Ship. MMSI: 357281000.

Date/timePositionNaut miles runAvg speedWind from/ knotsBaromVisibWave heightAir tempDewpointWater temp
2018-May-18 23:28N 20°31' W 086°57'1 1.1
2018-May-18 22:58N 20°31' W 086°57'0 0.0
2018-May-18 22:28N 20°31' W 086°57'0 0.0
2018-May-18 21:55N 20°31' W 086°57'0 0.0
2018-May-18 21:28N 20°31' W 086°57'0 0.0
2018-May-18 20:58N 20°31' W 086°57'0 0.0
2018-May-18 20:28N 20°31' W 086°57'0 0.0
2018-May-18 19:58N 20°31' W 086°57'0 0.0
2018-May-18 19:28N 20°31' W 086°57'0 0.0
2018-May-18 18:58N 20°31' W 086°57'0 0.0
2018-May-18 18:28N 20°31' W 086°57'0 0.0
2018-May-18 17:58N 20°31' W 086°57'0 0.0
2018-May-18 17:28N 20°31' W 086°57'0 0.0
2018-May-18 16:58N 20°31' W 086°57'0 0.0
2018-May-18 16:28N 20°31' W 086°57'0 0.0
2018-May-18 15:55N 20°31' W 086°57'0 0.0
2018-May-18 15:25N 20°31' W 086°57'0 0.0
2018-May-18 14:58N 20°31' W 086°57'0 0.0
2018-May-18 14:28N 20°31' W 086°57'0 0.0
2018-May-18 13:58N 20°31' W 086°57'1 1.1
2018-May-18 13:30N 20°31' W 086°57'  
2018-May-11 21:28N 20°35' W 086°57'4 8.8
2018-May-11 20:59N 20°31' W 086°57'0 0.0
2018-May-11 20:29N 20°31' W 086°57'0 0.0
2018-May-11 19:59N 20°31' W 086°57'0 0.0
2018-May-11 19:29N 20°31' W 086°57'0 0.0
2018-May-11 18:56N 20°31' W 086°57'0 0.0
2018-May-11 18:29N 20°31' W 086°57'0 0.0
2018-May-11 17:59N 20°31' W 086°57'0 0.0
2018-May-11 17:29N 20°31' W 086°57'0 0.0
2018-May-11 16:59N 20°31' W 086°57'0 0.0
2018-May-11 16:29N 20°31' W 086°57'0 0.0
2018-May-11 15:59N 20°31' W 086°57'0 0.0
2018-May-11 15:28N 20°31' W 086°57'0 0.0
2018-May-11 14:59N 20°31' W 086°57'0 0.0
2018-May-11 14:29N 20°31' W 086°57'0 0.0
2018-May-11 13:58N 20°31' W 086°57'0 0.0
2018-May-11 13:28N 20°31' W 086°57'0 0.0
2018-May-11 12:58N 20°31' W 086°57'0 0.0
2018-May-11 12:28N 20°31' W 086°57'0 0.0
2018-May-11 11:58N 20°31' W 086°57'0 0.0
2018-May-11 11:30N 20°31' W 086°57'1 1.9
2018-May-11 11:00N 20°30' W 086°58'4 8.0
2018-May-11 10:30N 20°27' W 087°01'  

Dump ship's entire track history